M I D A S
Marine Information and Data Acquisition System
Tripno 1296 of the Zeeleeuw from 2007-06-20 06:34:19 to 2007-06-20 14:37:03
Back to CruiseResearch ActivitiesStationsMapUnderway DataData graphs

EquipmentUnitsComment
TimeDGPSUTC
LatitudeDGPSDM.mWGS84
LongitudeDGPSDM.mWGS84
HeadingGyrodeg 
SOGDGPSknotsSpeed over ground
COGDGPSdegCourse over ground
DepthEcho soundermeters200 kHz
Missing or incorrect values are displayed as -999
Navigation data collected by the RV Zeeleeuw from 2007-06-20 06:36:08 to 2007-06-20 14:48:29
Time Latitude Longitude Heading SOG COG Depth
2007-06-20 06:37:13 51°13.619 2°56.028 118.7 4.3 297 -999
2007-06-20 06:38:13 51°13.659 2°55.915 121.2 4.5 299 -999
2007-06-20 06:39:13 51°13.686 2°55.826 105.1 3.2 288 12.2
2007-06-20 06:40:13 51°13.692 2°55.75 81.2 2.5 269 12.9
2007-06-20 06:41:13 51°13.69 2°55.711 53.1 0.4 270 13.5
2007-06-20 06:42:13 51°13.718 2°55.706 353.1 3.6 345 12.9
2007-06-20 06:43:13 51°13.802 2°55.649 340.1 6.6 336 12.6
2007-06-20 06:44:13 51°13.912 2°55.577 341.3 7.4 337 12.6
2007-06-20 06:45:13 51°14.025 2°55.503 339.6 6.8 337 12.2
2007-06-20 06:46:13 51°14.12 2°55.431 336.1 6.1 333 12.3
2007-06-20 06:47:13 51°14.223 2°55.325 324.8 8.5 321 12.2
2007-06-20 06:48:13 51°14.333 2°55.128 312.1 11.2 308 12.3
2007-06-20 06:49:13 51°14.438 2°54.844 295.1 13.1 286 11.7
2007-06-20 06:50:13 51°14.416 2°54.512 252 12.6 248 11.9
2007-06-20 06:51:13 51°14.323 2°54.216 246.4 12.5 243 10.1
2007-06-20 06:52:13 51°14.225 2°53.921 244.2 12.6 242 10.1
2007-06-20 06:53:13 51°14.126 2°53.625 245.4 12.8 242 10.3
2007-06-20 06:54:13 51°14.033 2°53.322 247 12.7 244 10.6
2007-06-20 06:55:13 51°13.938 2°53.016 246.9 12.9 245 10.9
2007-06-20 06:56:13 51°13.835 2°52.718 243.1 12.9 240 11
2007-06-20 06:57:13 51°13.727 2°52.423 242.3 12.9 239 11.2
2007-06-20 06:58:13 51°13.62 2°52.126 243.9 12.9 242 11.3
2007-06-20 06:59:13 51°13.513 2°51.828 242.9 13 239 11.3
2007-06-20 07:00:13 51°13.407 2°51.529 243.6 12.9 240 11.4
2007-06-20 07:01:13 51°13.299 2°51.231 243.1 12.9 240 11.4
2007-06-20 07:02:13 51°13.193 2°50.933 243.3 13 240 11.7
2007-06-20 07:03:13 51°13.086 2°50.637 243.7 12.8 240 11.7
2007-06-20 07:04:13 51°12.981 2°50.341 243.4 12.8 242 11.8
2007-06-20 07:05:13 51°12.876 2°50.045 243.2 12.8 241 11.9
2007-06-20 07:06:13 51°12.778 2°49.743 246.5 12.8 243 12
2007-06-20 07:07:13 51°12.681 2°49.44 246.5 12.9 242 12.1
2007-06-20 07:08:13 51°12.585 2°49.135 246.3 12.9 244 12.3
2007-06-20 07:09:13 51°12.489 2°48.827 246.6 13 243 12.4
2007-06-20 07:10:13 51°12.393 2°48.519 246.5 13 243 12.5
2007-06-20 07:11:13 51°12.296 2°48.21 246.1 13.1 243 12.6
2007-06-20 07:12:13 51°12.199 2°47.899 245.9 13.1 245 12.8
2007-06-20 07:13:13 51°12.103 2°47.591 246.5 13 244 12.8
2007-06-20 07:14:13 51°12.006 2°47.283 245.9 12.9 243 12.9
2007-06-20 07:15:13 51°11.911 2°46.974 245.9 13 244 12.8
2007-06-20 07:16:13 51°11.815 2°46.665 245.3 13.1 243 12.9
2007-06-20 07:17:13 51°11.712 2°46.36 244.7 13 242 12.8
2007-06-20 07:18:13 51°11.611 2°46.054 244.2 13.1 242 12.6
2007-06-20 07:19:13 51°11.512 2°45.749 244.3 12.9 242 12.3
2007-06-20 07:20:13 51°11.412 2°45.444 244.3 13 242 12.2
2007-06-20 07:21:13 51°11.313 2°45.137 244.7 13.1 241 12
2007-06-20 07:22:13 51°11.213 2°44.828 244.2 13.1 243 11.7
2007-06-20 07:23:13 51°11.113 2°44.518 244.5 13.1 242 11.4
2007-06-20 07:24:13 51°11.014 2°44.209 244 13.1 243 11.1
2007-06-20 07:25:13 51°10.913 2°43.898 244.5 13.2 244 10.8
2007-06-20 07:26:13 51°10.813 2°43.586 243.3 13.3 241 10.6
2007-06-20 07:27:13 51°10.696 2°43.292 238.4 13.2 236 10
2007-06-20 07:28:13 51°10.578 2°42.997 239.1 13.3 238 9.5
2007-06-20 07:29:13 51°10.464 2°42.7 239.6 13.1 238 9.2
2007-06-20 07:30:13 51°10.347 2°42.402 239.8 13.3 238 9
2007-06-20 07:31:13 51°10.231 2°42.104 238.7 13.2 238 8.9
2007-06-20 07:32:13 51°10.121 2°41.801 243.2 13.2 242 8.7
2007-06-20 07:33:13 51°10.022 2°41.486 245.7 13.3 243 8.9
2007-06-20 07:34:13 51°9.923 2°41.169 245.9 13.4 246 8.7
2007-06-20 07:35:13 51°9.83 2°40.848 245.3 13.4 246 8.8
2007-06-20 07:36:13 51°9.737 2°40.527 246.1 13.4 245 8.8
2007-06-20 07:37:13 51°9.645 2°40.206 245.7 13.2 245 8.7
2007-06-20 07:38:13 51°9.552 2°39.886 245.5 13.4 244 8.7
2007-06-20 07:39:13 51°9.46 2°39.564 247.4 13.4 246 8.8
2007-06-20 07:40:13 51°9.377 2°39.295 239.1 8 237 9.1
2007-06-20 07:41:13 51°9.314 2°39.194 216.2 3.9 217 9
2007-06-20 07:42:13 51°9.269 2°39.15 212.6 2.8 214 8.9
2007-06-20 07:43:13 51°9.238 2°39.11 225.4 2.2 227 8.7
2007-06-20 07:44:13 51°9.215 2°39.053 244.7 3.5 243 8.6
2007-06-20 07:45:13 51°9.195 2°38.936 257.9 4.5 258 8.7
2007-06-20 07:46:13 51°9.183 2°38.836 262.6 3.3 262 8.7
2007-06-20 07:47:13 51°9.177 2°38.758 263.4 2.7 265 8.8
2007-06-20 07:48:13 51°9.171 2°38.683 259.8 2.9 261 8.9
2007-06-20 07:49:13 51°9.157 2°38.609 250.4 3 252 8.9
2007-06-20 07:50:13 51°9.141 2°38.534 253.6 3 251 8.8
2007-06-20 07:51:13 51°9.127 2°38.455 258.6 3.1 259 9
2007-06-20 07:52:13 51°9.12 2°38.373 266.1 3.1 266 8.9
2007-06-20 07:53:13 51°9.115 2°38.29 262.6 3 263 9
2007-06-20 07:54:13 51°9.103 2°38.213 250.9 3 251 9.1
2007-06-20 07:55:13 51°9.085 2°38.137 247.6 3.1 247 9
2007-06-20 07:56:13 51°9.066 2°38.063 248.7 3 249 9.1
2007-06-20 07:57:13 51°9.05 2°37.986 256.1 3 255 9
2007-06-20 07:58:13 51°9.045 2°37.907 272.2 3 270 9
2007-06-20 07:59:13 51°9.047 2°37.827 273.3 3 273 9.2
2007-06-20 08:00:13 51°9.045 2°37.748 264.5 3 265 9.1
2007-06-20 08:01:13 51°9.037 2°37.67 257.6 3 260 9.3
2007-06-20 08:02:13 51°9.026 2°37.59 261.2 3.2 261 9.2
2007-06-20 08:03:13 51°9.025 2°37.507 274.5 3.2 273 9.1
2007-06-20 08:04:13 51°9.026 2°37.423 270.7 3.1 271 9.2
2007-06-20 08:05:13 51°9.023 2°37.339 264.5 3.2 265 9.3
2007-06-20 08:06:13 51°9.016 2°37.256 263.8 3.2 265 9.1
2007-06-20 08:07:13 51°9.016 2°37.172 273.6 3.2 272 9.1
2007-06-20 08:08:13 51°9.021 2°37.086 275.6 3.2 276 9.2
2007-06-20 08:09:13 51°9.024 2°37.002 272.1 3.2 271 9.3
2007-06-20 08:10:13 51°9.021 2°36.919 262.3 3.1 262 9.3
2007-06-20 08:11:13 51°9.009 2°36.842 248.5 3 249 9.4
2007-06-20 08:12:13 51°8.99 2°36.764 245.6 3.2 249 9.2
2007-06-20 08:13:13 51°8.971 2°36.686 246.7 3.1 249 9.1
2007-06-20 08:14:13 51°8.954 2°36.609 248.3 3.1 252 9.1
2007-06-20 08:15:13 51°8.937 2°36.529 249.6 3.2 250 9.1
2007-06-20 08:16:13 51°8.921 2°36.447 251.2 3.2 254 9.3
2007-06-20 08:17:13 51°8.905 2°36.367 251.1 3.2 252 9.1
2007-06-20 08:18:13 51°8.89 2°36.284 253 3.2 253 9.2
2007-06-20 08:19:13 51°8.879 2°36.2 257.6 3.2 261 9.2
2007-06-20 08:20:13 51°8.877 2°36.117 276.4 3.1 278 9.7
2007-06-20 08:21:13 51°8.896 2°36.043 315.8 2.9 311 10.5
2007-06-20 08:22:13 51°8.929 2°36.004 346.1 2 329 11.5
2007-06-20 08:23:13 51°8.952 2°35.976 337.3 1.6 317 12.5
2007-06-20 08:24:13 51°8.967 2°35.949 327.9 1.2 304 12.9
2007-06-20 08:25:13 51°8.976 2°35.927 323 0.8 298 13.3
2007-06-20 08:26:13 51°8.993 2°35.898 334.5 3.2 327 13.8
2007-06-20 08:27:13 51°9.117 2°35.82 346.2 12.1 338 15.4
2007-06-20 08:28:13 51°9.324 2°35.728 358.5 13 355 15.8
2007-06-20 08:29:13 51°9.539 2°35.739 10.6 13 3 16.1
2007-06-20 08:30:13 51°9.755 2°35.758 9.3 13 2 17.6
2007-06-20 08:31:13 51°9.972 2°35.774 9.4 13 3 17
2007-06-20 08:32:13 51°10.178 2°35.858 25.3 12.7 17 11.3
2007-06-20 08:33:13 51°10.379 2°35.966 23.8 12.9 18 10
2007-06-20 08:34:13 51°10.571 2°36.112 35.9 12.7 32 10.1
2007-06-20 08:35:13 51°10.754 2°36.283 35.2 12.9 29 10.6
2007-06-20 08:36:13 51°10.941 2°36.446 32.1 12.7 27 11.3
2007-06-20 08:37:13 51°11.132 2°36.594 31.5 12.8 26 11.5
2007-06-20 08:38:13 51°11.323 2°36.742 32.6 12.7 24 11.7
2007-06-20 08:39:13 51°11.515 2°36.886 31.4 12.8 25 11.6
2007-06-20 08:40:13 51°11.706 2°37.033 31.2 12.8 26 11.7
2007-06-20 08:41:13 51°11.895 2°37.187 33.2 12.7 28 11.4
2007-06-20 08:42:13 51°12.079 2°37.35 38.1 12.5 32 11.1
2007-06-20 08:43:13 51°12.252 2°37.537 39.9 12.6 34 11.1
2007-06-20 08:44:13 51°12.427 2°37.722 39.5 12.7 34 11.6
2007-06-20 08:45:13 51°12.602 2°37.911 40.6 12.7 35 12
2007-06-20 08:46:13 51°12.78 2°38.097 38.1 12.7 34 12.2
2007-06-20 08:47:13 51°12.957 2°38.285 39.7 12.9 33 12.7
2007-06-20 08:48:13 51°13.136 2°38.465 39.3 12.7 32 13.2
2007-06-20 08:49:13 51°13.323 2°38.625 28.5 12.9 21 13.3
2007-06-20 08:50:13 51°13.525 2°38.739 26.4 13 20 13.5
2007-06-20 08:51:13 51°13.728 2°38.853 27 12.9 19 13.5
2007-06-20 08:52:13 51°13.941 2°38.904 12.4 13 4 12.5
2007-06-20 08:53:13 51°14.157 2°38.928 12.2 13 3 11
2007-06-20 08:54:13 51°14.376 2°38.957 12.9 13.1 6 15.5
2007-06-20 08:55:13 51°14.593 2°38.989 12.9 13 6 16.4
2007-06-20 08:56:13 51°14.813 2°38.999 6.3 13.2 -999 15.9
2007-06-20 08:57:13 51°15.031 2°38.993 6.3 13 -999 16.8
2007-06-20 08:58:13 51°15.249 2°38.989 6.2 13.1 359 17.1
2007-06-20 08:59:13 51°15.468 2°38.986 6.5 13.1 -999 17.3
2007-06-20 09:00:13 51°15.688 2°38.984 7.2 13.2 -999 16.7
2007-06-20 09:01:13 51°15.907 2°38.978 4.2 13 355 15.6
2007-06-20 09:02:13 51°16.124 2°38.949 2.9 13.2 354 13.5
2007-06-20 09:03:13 51°16.341 2°38.915 2.4 13.2 354 11.7
2007-06-20 09:04:13 51°16.556 2°38.854 350.7 13.3 340 9.8
2007-06-20 09:05:13 51°16.755 2°38.692 334.5 13.5 327 8.5
2007-06-20 09:06:13 51°16.939 2°38.471 329.8 14.7 323 15.2
2007-06-20 09:07:13 51°17.129 2°38.259 332.4 13.5 325 25.1
2007-06-20 09:08:13 51°17.313 2°38.051 332.5 13.6 325 25.7
2007-06-20 09:09:13 51°17.497 2°37.844 333.4 13.6 324 26
2007-06-20 09:10:13 51°17.682 2°37.637 333.8 13.6 324 26.1
2007-06-20 09:11:13 51°17.869 2°37.43 333.1 13.6 326 24.2
2007-06-20 09:12:13 51°18.057 2°37.23 332.8 13.5 324 21.5
2007-06-20 09:13:13 51°18.241 2°37.028 333.9 13.4 327 18.6
2007-06-20 09:14:13 51°18.425 2°36.823 333.2 13.4 325 14.2
2007-06-20 09:15:13 51°18.61 2°36.613 333.2 13.6 325 17.3
2007-06-20 09:16:13 51°18.794 2°36.404 333.3 13.4 325 19.5
2007-06-20 09:17:13 51°18.975 2°36.192 333.8 13.4 323 20.7
2007-06-20 09:18:13 51°19.155 2°35.984 333.8 13.4 325 22.6
2007-06-20 09:19:13 51°19.337 2°35.774 333.8 13.4 324 18.6
2007-06-20 09:20:13 51°19.518 2°35.563 332.6 13.5 325 19.7
2007-06-20 09:21:13 51°19.699 2°35.351 332.8 13.5 325 17
2007-06-20 09:22:13 51°19.882 2°35.139 332.8 13.7 324 14.7
2007-06-20 09:23:13 51°20.066 2°34.924 332.9 13.7 324 19.4
2007-06-20 09:24:13 51°20.249 2°34.716 333.8 13.4 324 27.3
2007-06-20 09:25:13 51°20.429 2°34.506 333.5 13.4 324 29.8
2007-06-20 09:26:13 51°20.61 2°34.292 333.7 13.5 323 30
2007-06-20 09:27:13 51°20.793 2°34.081 333.7 13.6 323 30.2
2007-06-20 09:28:13 51°20.977 2°33.868 333.5 13.7 323 29.3
2007-06-20 09:29:13 51°21.163 2°33.657 332.8 13.7 324 31.3
2007-06-20 09:30:13 51°21.35 2°33.447 333.4 13.7 325 29.1
2007-06-20 09:31:13 51°21.538 2°33.242 332.8 13.5 328 24.7
2007-06-20 09:32:13 51°21.724 2°33.038 333 13.6 326 21.4
2007-06-20 09:33:13 51°21.909 2°32.835 333 13.6 326 25.5
2007-06-20 09:34:13 51°22.095 2°32.632 333.7 13.5 325 29.6
2007-06-20 09:35:13 51°22.278 2°32.424 332.6 13.5 326 29.7
2007-06-20 09:36:13 51°22.456 2°32.208 326.1 13.4 315 30.2
2007-06-20 09:37:13 51°22.538 2°31.879 284.3 13.9 276 29.8
2007-06-20 09:38:13 51°22.539 2°31.506 275.1 14.2 269 30.1
2007-06-20 09:39:13 51°22.541 2°31.129 276.9 14.3 270 29.3
2007-06-20 09:40:13 51°22.546 2°30.75 277.4 14.2 273 30.3
2007-06-20 09:41:13 51°22.554 2°30.374 278.7 14.1 273 30.3
2007-06-20 09:42:13 51°22.566 2°30.001 278.7 14.1 273 31.2
2007-06-20 09:43:13 51°22.578 2°29.627 278.7 14 273 32
2007-06-20 09:44:13 51°22.589 2°29.256 278.8 13.9 273 31.9
2007-06-20 09:45:13 51°22.601 2°28.885 279.4 14.1 273 32
2007-06-20 09:46:13 51°22.605 2°28.511 274.6 14.2 270 32.9
2007-06-20 09:47:13 51°22.602 2°28.135 274.3 14.2 270 32.6
2007-06-20 09:48:13 51°22.603 2°27.76 275 14.2 270 33.1
2007-06-20 09:49:13 51°22.604 2°27.385 274.8 14.1 269 33.3
2007-06-20 09:50:13 51°22.605 2°27.012 275.6 14 269 33
2007-06-20 09:51:13 51°22.606 2°26.636 275 14.2 270 31.6
2007-06-20 09:52:13 51°22.612 2°26.262 277.7 13.9 277 31.8
2007-06-20 09:53:13 51°22.709 2°25.937 311.8 13.7 304 21.6
2007-06-20 09:54:13 51°22.845 2°25.643 316.2 13.6 314 18
2007-06-20 09:55:13 51°23.027 2°25.443 345.7 13.1 341 27.9
2007-06-20 09:56:13 51°23.235 2°25.443 20.8 12.6 15 31.2
2007-06-20 09:57:13 51°23.44 2°25.512 16.8 12.7 9 31.5
2007-06-20 09:58:13 51°23.653 2°25.554 14.1 13 4 32.7
2007-06-20 09:59:13 51°23.863 2°25.597 15.2 12.2 9 32.8
2007-06-20 10:00:13 51°24.071 2°25.638 11.9 12.6 6 32.5
2007-06-20 10:01:13 51°24.279 2°25.675 15.7 12.5 7 32
2007-06-20 10:02:13 51°24.487 2°25.725 16.6 12.3 13 33.5
2007-06-20 10:03:13 51°24.689 2°25.777 16.6 12.3 10 34
2007-06-20 10:04:13 51°24.896 2°25.825 14.5 12.6 6 33.6
2007-06-20 10:05:13 51°25.098 2°25.871 14.6 12.4 6 33
2007-06-20 10:06:13 51°25.305 2°25.919 16.3 12.6 6 32.3
2007-06-20 10:07:13 51°25.511 2°25.965 14.3 12.6 5 32.8
2007-06-20 10:08:13 51°25.717 2°26.016 16.3 12.6 10 33.2
2007-06-20 10:09:13 51°25.925 2°26.065 15.5 12.6 10 32.4
2007-06-20 10:10:13 51°26.131 2°26.115 16.3 12.5 8 30.7
2007-06-20 10:11:13 51°26.337 2°26.167 14.2 12.5 9 27.5
2007-06-20 10:12:13 51°26.541 2°26.214 15.6 12.3 7 22.2
2007-06-20 10:13:13 51°26.744 2°26.273 17.1 12.5 12 22
2007-06-20 10:14:13 51°26.952 2°26.319 13.7 12.4 7 23.9
2007-06-20 10:15:13 51°27.158 2°26.369 14.5 12.8 10 26.8
2007-06-20 10:16:13 51°27.366 2°26.421 15.7 12.3 8 31.8
2007-06-20 10:17:13 51°27.567 2°26.477 16.4 12.2 7 33.3
2007-06-20 10:18:13 51°27.771 2°26.53 14.5 12.7 10 32.4
2007-06-20 10:19:13 51°27.974 2°26.586 14.9 12.1 15 33.1
2007-06-20 10:20:13 51°28.17 2°26.643 15.9 12.2 10 33.4
2007-06-20 10:21:13 51°28.374 2°26.686 11.6 12.1 359 33.7
2007-06-20 10:22:13 51°28.558 2°26.575 328.2 12.6 312 33.9
2007-06-20 10:23:13 51°28.654 2°26.259 304.6 13.4 300 34.3
2007-06-20 10:24:13 51°28.773 2°25.961 310.9 13.3 302 32.4
2007-06-20 10:25:13 51°28.893 2°25.664 311.1 13.2 304 30.4
2007-06-20 10:26:14 51°29.016 2°25.362 310 13.3 305 31.9
2007-06-20 10:27:13 51°29.135 2°25.07 309.9 13.3 303 28
2007-06-20 10:28:13 51°29.254 2°24.771 311 13.3 303 25.7
2007-06-20 10:29:13 51°29.405 2°24.525 336 12.9 326 28.3
2007-06-20 10:30:13 51°29.603 2°24.453 10.9 12.3 5 34
2007-06-20 10:31:13 51°29.803 2°24.508 17.7 12.2 9 36.5
2007-06-20 10:32:13 51°30.003 2°24.557 17.4 11.9 9 37.6
2007-06-20 10:33:13 51°30.19 2°24.653 32.5 12 27 38.1
2007-06-20 10:34:13 51°30.35 2°24.825 37.8 11.6 31 38.9
2007-06-20 10:35:13 51°30.516 2°24.988 35.4 11.6 32 38.1
2007-06-20 10:36:13 51°30.686 2°25.139 32.6 11.8 29 38.8
2007-06-20 10:37:13 51°30.858 2°25.29 36.8 11.9 30 38
2007-06-20 10:38:13 51°31.036 2°25.437 32.4 11.9 29 38.7
2007-06-20 10:39:13 51°31.214 2°25.592 34.6 12 30 39.8
2007-06-20 10:40:13 51°31.383 2°25.741 36 11.7 32 39.5
2007-06-20 10:41:13 51°31.554 2°25.898 35.1 12.2 27 38.5
2007-06-20 10:42:13 51°31.728 2°26.052 36.4 11.6 30 39
2007-06-20 10:43:13 51°31.898 2°26.21 34.8 12 29 35.6
2007-06-20 10:44:13 51°32.07 2°26.368 35.5 11.7 28 38.4
2007-06-20 10:45:13 51°32.244 2°26.527 34.2 12.5 27 36.7
2007-06-20 10:46:13 51°32.416 2°26.688 35.5 12 30 34.9
2007-06-20 10:47:13 51°32.589 2°26.841 33.9 12 29 36.6
2007-06-20 10:48:13 51°32.76 2°27.003 36.7 12 31 37.9
2007-06-20 10:49:13 51°32.926 2°27.172 38.6 11.9 34 37.2
2007-06-20 10:50:13 51°33.092 2°27.346 39.9 11.8 31 36.3
2007-06-20 10:51:14 51°33.264 2°27.517 36.8 12 33 37.1
2007-06-20 10:52:13 51°33.428 2°27.683 39.1 11.7 31 36
2007-06-20 10:53:13 51°33.591 2°27.843 37.5 11.4 36 37.1
2007-06-20 10:54:13 51°33.756 2°28.01 38.8 11.8 31 35.8
2007-06-20 10:55:13 51°33.921 2°28.181 40.8 11.7 35 31.7
2007-06-20 10:56:13 51°34.094 2°28.346 34.7 11.9 29 34.6
2007-06-20 10:57:13 51°34.26 2°28.504 37.7 11.5 31 31.9
2007-06-20 10:58:13 51°34.426 2°28.669 37.3 12.1 29 35.2
2007-06-20 10:59:13 51°34.595 2°28.833 38.3 11.9 35 34
2007-06-20 11:00:13 51°34.761 2°29.007 37.7 12 36 32.3
2007-06-20 11:01:13 51°34.934 2°29.172 36.2 11.9 33 34.7
2007-06-20 11:02:14 51°35.1 2°29.34 37.9 11.8 28 30.3
2007-06-20 11:03:13 51°35.265 2°29.494 35.1 11.6 32 34.8
2007-06-20 11:04:13 51°35.428 2°29.656 36.5 11.7 30 35.2
2007-06-20 11:05:13 51°35.596 2°29.82 38.4 12 31 34.3
2007-06-20 11:06:13 51°35.761 2°29.984 35.4 11.5 36 35.7
2007-06-20 11:07:14 51°35.932 2°30.154 36.2 11.5 31 36.4
2007-06-20 11:08:13 51°36.095 2°30.317 37.4 11.5 34 34.8
2007-06-20 11:09:13 51°36.261 2°30.48 37.1 11.7 32 34.8
2007-06-20 11:10:13 51°36.428 2°30.643 38.1 12 30 34.8
2007-06-20 11:11:13 51°36.593 2°30.805 36.8 11.6 30 35.6
2007-06-20 11:12:13 51°36.763 2°30.972 38.2 12.1 32 36.6
2007-06-20 11:13:13 51°36.936 2°31.137 35.1 11.9 26 37.6
2007-06-20 11:14:14 51°37.106 2°31.302 37 11.6 34 38.2
2007-06-20 11:15:13 51°37.264 2°31.47 38.5 11.8 31 39
2007-06-20 11:16:14 51°37.434 2°31.642 37.7 12 31 38.8
2007-06-20 11:17:13 51°37.597 2°31.802 34.9 11.7 33 39
2007-06-20 11:18:14 51°37.763 2°31.973 36.6 11.7 31 38.6
2007-06-20 11:19:13 51°37.922 2°32.134 34.7 11.3 34 38.9
2007-06-20 11:20:13 51°38.085 2°32.307 37 11.7 31 40.1
2007-06-20 11:21:13 51°38.249 2°32.477 39 11.6 36 40.9
2007-06-20 11:22:14 51°38.409 2°32.645 38 11.4 31 40.6
2007-06-20 11:23:14 51°38.569 2°32.812 35.1 11.8 34 42.3
2007-06-20 11:24:13 51°38.732 2°32.972 37.7 11.7 29 41.8
2007-06-20 11:25:13 51°38.895 2°33.139 37 11.7 31 40.3
2007-06-20 11:26:13 51°39.052 2°33.303 37.7 11.2 34 41.6
2007-06-20 11:27:14 51°39.216 2°33.471 37.9 11.3 33 41.1
2007-06-20 11:28:13 51°39.375 2°33.632 37.8 11.6 33 39.2
2007-06-20 11:29:13 51°39.538 2°33.805 39.9 11.7 29 41.6
2007-06-20 11:30:13 51°39.702 2°33.982 39.9 12.2 36 40.6
2007-06-20 11:31:13 51°39.871 2°34.147 34.1 12.2 29 38.6
2007-06-20 11:32:14 51°40.04 2°34.315 37.6 11.8 37 36.7
2007-06-20 11:33:13 51°40.2 2°34.481 38.2 11.9 33 37.4
2007-06-20 11:34:14 51°40.371 2°34.65 36.1 11.8 32 36.7
2007-06-20 11:35:13 51°40.536 2°34.812 37 12.3 31 35.9
2007-06-20 11:36:14 51°40.704 2°34.984 39.8 11.6 34 35.5
2007-06-20 11:37:13 51°40.865 2°35.14 37.6 11.4 34 34.6
2007-06-20 11:38:14 51°40.995 2°35.361 60.6 11.5 67 33.7
2007-06-20 11:39:13 51°41.021 2°35.67 81.6 11.9 86 29.7
2007-06-20 11:40:13 51°41.039 2°35.987 82.7 11.9 91 25.5
2007-06-20 11:41:14 51°41.002 2°36.311 99.8 11.8 102 19.9
2007-06-20 11:42:13 51°40.966 2°36.623 97 12.1 104 27.7
2007-06-20 11:43:14 51°40.879 2°36.937 116.6 12.7 119 32.6
2007-06-20 11:44:13 51°40.776 2°37.233 114.6 13 117 37.3
2007-06-20 11:45:13 51°40.674 2°37.532 113.9 12.7 118 37.6
2007-06-20 11:46:13 51°40.574 2°37.837 115.3 12.6 111 38.7
2007-06-20 11:47:14 51°40.471 2°38.147 114 12.8 122 39.1
2007-06-20 11:48:14 51°40.374 2°38.454 112.3 12.9 115 39.6
2007-06-20 11:49:13 51°40.279 2°38.756 113.9 12.8 115 42.3
2007-06-20 11:50:14 51°40.18 2°39.067 111 12.7 118 38.6
2007-06-20 11:51:13 51°40.088 2°39.369 113.3 12.7 114 42.5
2007-06-20 11:52:14 51°39.99 2°39.677 111.5 12.9 117 38
2007-06-20 11:53:13 51°39.895 2°39.975 110.3 13 124 38.2
2007-06-20 11:54:14 51°39.726 2°40.194 149.2 13.5 159 35.4
2007-06-20 11:55:13 51°39.502 2°40.238 179.4 14.1 184 36.6
2007-06-20 11:56:13 51°39.277 2°40.126 206.6 14.4 208 35.6
2007-06-20 11:57:13 51°39.069 2°39.925 212.2 14.5 210 37.9
2007-06-20 11:58:14 51°38.859 2°39.715 214.1 14.6 211 36.5
2007-06-20 11:59:14 51°38.652 2°39.506 212 14.6 211 34.9
2007-06-20 12:00:13 51°38.447 2°39.307 211.6 14.5 210 36.9
2007-06-20 12:01:14 51°38.251 2°39.069 221.6 14.6 219 37.8
2007-06-20 12:02:13 51°38.067 2°38.823 221.3 14.6 219 38.2
2007-06-20 12:03:14 51°37.877 2°38.571 220.9 14.5 220 38.7
2007-06-20 12:04:13 51°37.692 2°38.333 220.8 14.6 220 35.4
2007-06-20 12:05:13 51°37.505 2°38.092 220.7 14.4 219 37.8
2007-06-20 12:06:14 51°37.314 2°37.845 220.8 14.5 218 35.4
2007-06-20 12:07:13 51°37.129 2°37.606 219.9 14.6 220 36.5
2007-06-20 12:08:14 51°36.939 2°37.36 220.7 14.3 219 37.1
2007-06-20 12:09:13 51°36.754 2°37.122 220.4 14.5 219 36.5
2007-06-20 12:10:14 51°36.563 2°36.875 220.9 14.4 219 37.7
2007-06-20 12:11:13 51°36.378 2°36.636 220.7 14.5 218 37.3
2007-06-20 12:12:14 51°36.188 2°36.386 220.1 14.5 219 37.3
2007-06-20 12:13:13 51°36.003 2°36.145 220.7 14.5 218 36.4
2007-06-20 12:14:14 51°35.813 2°35.894 220.2 14.6 219 36.8
2007-06-20 12:15:14 51°35.625 2°35.644 219.7 14.7 220 35.6
2007-06-20 12:16:13 51°35.441 2°35.401 219.8 14.5 219 36.3
2007-06-20 12:17:14 51°35.251 2°35.148 219.9 14.6 219 35.2
2007-06-20 12:18:13 51°35.066 2°34.903 219.9 14.8 219 35.3
2007-06-20 12:19:14 51°34.875 2°34.646 220.5 14.7 219 35.7
2007-06-20 12:20:13 51°34.692 2°34.399 220.1 14.7 219 33.9
2007-06-20 12:21:13 51°34.505 2°34.144 221.2 14.7 220 34.5
2007-06-20 12:22:13 51°34.319 2°33.892 219.9 14.7 221 33.9
2007-06-20 12:23:14 51°34.127 2°33.635 220.6 14.8 219 34.8
2007-06-20 12:24:14 51°33.939 2°33.384 220.5 14.7 219 35
2007-06-20 12:25:13 51°33.754 2°33.136 220.5 14.5 219 31.7
2007-06-20 12:26:14 51°33.564 2°32.885 220.2 14.6 219 33.8
2007-06-20 12:27:13 51°33.38 2°32.643 220.4 14.6 219 30.6
2007-06-20 12:28:14 51°33.189 2°32.393 220.8 14.3 220 26.8
2007-06-20 12:29:14 51°33.002 2°32.149 220.2 14.6 219 24.6
2007-06-20 12:30:14 51°32.813 2°31.905 219.7 14.5 219 26.2
2007-06-20 12:31:14 51°32.62 2°31.678 212.7 14.2 209 24.7
2007-06-20 12:32:13 51°32.4 2°31.553 191.3 14.2 189 24.6
2007-06-20 12:33:14 51°32.169 2°31.605 162.3 13.9 162 30.7
2007-06-20 12:34:14 51°31.951 2°31.718 159.7 13.9 163 29.8
2007-06-20 12:35:14 51°31.731 2°31.822 160.9 13.6 163 34.9
2007-06-20 12:36:13 51°31.512 2°31.917 162.1 13.8 165 35.2
2007-06-20 12:37:14 51°31.288 2°32.011 161.6 13.7 167 36.7
2007-06-20 12:38:13 51°31.072 2°32.101 163.3 13.7 165 35.4
2007-06-20 12:39:14 51°30.849 2°32.198 163.1 13.6 165 35.3
2007-06-20 12:40:14 51°30.63 2°32.294 163 13.8 166 33.5
2007-06-20 12:41:13 51°30.414 2°32.385 163.5 13.7 164 30.4
2007-06-20 12:42:14 51°30.191 2°32.48 163.3 13.5 165 29.2
2007-06-20 12:43:13 51°29.978 2°32.573 163 13.3 165 25.3
2007-06-20 12:44:14 51°29.785 2°32.744 137.1 12.9 133 24.2
2007-06-20 12:45:14 51°29.723 2°33.051 91.4 12.3 85 20.7
2007-06-20 12:46:14 51°29.739 2°33.376 85.3 12.1 86 18.9
2007-06-20 12:47:14 51°29.749 2°33.699 89.3 12.1 87 16.5
2007-06-20 12:48:14 51°29.74 2°34.024 89.2 12.9 94 22.8
2007-06-20 12:49:14 51°29.735 2°34.356 90.1 12.4 90 36.6
2007-06-20 12:50:14 51°29.723 2°34.692 91.1 12.5 94 37.1
2007-06-20 12:51:14 51°29.715 2°35.026 90.7 12.5 89 37.9
2007-06-20 12:52:13 51°29.705 2°35.355 92.6 12.4 94 37.8
2007-06-20 12:53:14 51°29.7 2°35.695 91.3 12.8 89 35.3
2007-06-20 12:54:14 51°29.691 2°36.032 92.3 12.8 91 33.5
2007-06-20 12:55:14 51°29.685 2°36.369 91.6 12.5 90 29.6
2007-06-20 12:56:14 51°29.677 2°36.702 90.3 12.7 97 25.6
2007-06-20 12:57:14 51°29.668 2°37.037 91.2 12.8 89 24.8
2007-06-20 12:58:14 51°29.584 2°37.342 125.6 13.2 132 28.5
2007-06-20 12:59:13 51°29.405 2°37.546 144.9 13.6 155 36.3
2007-06-20 13:00:14 51°29.19 2°37.688 160 14 162 36.4
2007-06-20 13:01:13 51°28.972 2°37.796 160.9 13.9 162 36.8
2007-06-20 13:02:14 51°28.751 2°37.919 156.2 13.6 159 35.5
2007-06-20 13:03:14 51°28.538 2°38.049 158.4 13.6 160 36.2
2007-06-20 13:04:14 51°28.324 2°38.173 158.5 13.8 158 34.5
2007-06-20 13:05:14 51°28.11 2°38.301 158 13.9 161 36.2
2007-06-20 13:06:14 51°27.896 2°38.43 158.2 13.6 158 33.3
2007-06-20 13:07:14 51°27.682 2°38.561 157.8 13.8 158 34
2007-06-20 13:08:14 51°27.466 2°38.693 157.6 14 157 33.1
2007-06-20 13:09:14 51°27.252 2°38.824 158 13.6 157 33.9
2007-06-20 13:10:14 51°27.037 2°38.948 160.4 13.7 160 34.2
2007-06-20 13:11:14 51°26.82 2°39.063 159.9 13.8 160 33.6
2007-06-20 13:12:14 51°26.601 2°39.177 161.1 13.8 160 32.8
2007-06-20 13:13:14 51°26.384 2°39.294 160.6 13.7 161 37.4
2007-06-20 13:14:14 51°26.169 2°39.413 160.6 13.6 159 37.9
2007-06-20 13:15:14 51°25.952 2°39.527 160.2 13.7 163 33.6
2007-06-20 13:16:14 51°25.735 2°39.64 160.4 13.7 164 31.8
2007-06-20 13:17:14 51°25.518 2°39.754 159.8 13.7 161 30.1
2007-06-20 13:18:14 51°25.302 2°39.866 159.5 13.8 163 29.2
2007-06-20 13:19:13 51°25.088 2°39.975 160.7 13.6 162 28.5
2007-06-20 13:20:14 51°24.87 2°40.089 160 13.6 162 29.1
2007-06-20 13:21:14 51°24.654 2°40.203 160.4 13.7 164 25.5
2007-06-20 13:22:14 51°24.439 2°40.317 159.4 13.6 161 26.9
2007-06-20 13:23:14 51°24.224 2°40.432 160.7 13.7 161 27.2
2007-06-20 13:24:14 51°24.005 2°40.53 167.6 13.8 170 27.7
2007-06-20 13:25:14 51°23.776 2°40.525 182.9 13.8 184 28.4
2007-06-20 13:26:14 51°23.548 2°40.507 182.5 13.8 183 29.7
2007-06-20 13:27:14 51°23.319 2°40.495 181.9 13.8 181 30
2007-06-20 13:28:14 51°23.091 2°40.484 181.4 13.8 182 30.4
2007-06-20 13:29:14 51°22.863 2°40.474 181.7 13.7 182 29.6
2007-06-20 13:30:14 51°22.635 2°40.461 181.6 13.7 183 30.3
2007-06-20 13:31:14 51°22.412 2°40.443 182.2 13.5 183 30.1
2007-06-20 13:32:14 51°22.189 2°40.429 181.1 13.4 183 29.6
2007-06-20 13:33:14 51°21.965 2°40.416 181 13.5 180 28.1
2007-06-20 13:34:14 51°21.743 2°40.406 181.4 13.4 181 28.7
2007-06-20 13:35:14 51°21.518 2°40.392 181.5 13.5 180 28.5
2007-06-20 13:36:14 51°21.294 2°40.383 180.9 13.5 181 27.6
2007-06-20 13:37:14 51°21.07 2°40.374 181.1 13.5 180 27.1
2007-06-20 13:38:14 51°20.853 2°40.427 159 13.3 153 27.4
2007-06-20 13:39:14 51°20.744 2°40.705 99.4 12.7 101 27.4
2007-06-20 13:40:14 51°20.681 2°41.031 113.9 13.2 118 27.4
2007-06-20 13:41:14 51°20.576 2°41.341 118.4 13.1 116 25.8
2007-06-20 13:42:14 51°20.479 2°41.657 114.7 13.1 113 21.4
2007-06-20 13:43:14 51°20.384 2°41.978 114.1 13.3 117 18
2007-06-20 13:44:14 51°20.287 2°42.297 116 13.6 118 21.8
2007-06-20 13:45:14 51°20.192 2°42.613 115.7 13.1 111 24
2007-06-20 13:46:14 51°20.102 2°42.924 116.1 13 111 26
2007-06-20 13:47:14 51°20.005 2°43.23 116.9 13 120 27.1
2007-06-20 13:48:14 51°19.909 2°43.539 113.8 13.1 114 27.3
2007-06-20 13:49:14 51°19.807 2°43.847 117.3 13.1 120 25.4
2007-06-20 13:50:14 51°19.718 2°44.165 113.6 13.2 114 25.1
2007-06-20 13:51:14 51°19.636 2°44.484 111.3 13.2 111 23.6
2007-06-20 13:52:14 51°19.553 2°44.808 113.1 13 112 22.4
2007-06-20 13:53:14 51°19.47 2°45.128 111.2 13.5 115 15.3
2007-06-20 13:54:14 51°19.386 2°45.452 110.3 13.3 114 13.6
2007-06-20 13:55:14 51°19.304 2°45.775 113.8 13.1 109 16.8
2007-06-20 13:56:14 51°19.216 2°46.095 115.3 12.8 114 20.6
2007-06-20 13:57:14 51°19.13 2°46.416 112.6 13.1 116 22.3
2007-06-20 13:58:14 51°19.04 2°46.742 112.4 13.8 116 22.1
2007-06-20 13:59:14 51°18.953 2°47.064 112.2 12.9 114 21.2
2007-06-20 14:00:14 51°18.867 2°47.382 115 13.1 112 19.9
2007-06-20 14:01:14 51°18.782 2°47.703 113.9 13.2 113 17.8
2007-06-20 14:02:14 51°18.698 2°48.034 114.4 13.6 111 15.7
2007-06-20 14:03:14 51°18.615 2°48.359 112.4 13.3 111 14
2007-06-20 14:04:14 51°18.531 2°48.686 113.1 13.6 112 11.9
2007-06-20 14:05:14 51°18.447 2°49.02 114.3 13.7 112 12
2007-06-20 14:06:14 51°18.364 2°49.352 111.5 13.6 114 12.7
2007-06-20 14:07:14 51°18.278 2°49.685 113.3 13.7 112 14.4
2007-06-20 14:08:14 51°18.192 2°50.017 111.7 13.6 113 15.2
2007-06-20 14:09:14 51°18.104 2°50.348 115.2 13.5 118 15
2007-06-20 14:10:14 51°18.024 2°50.679 113.2 13.4 108 14.1
2007-06-20 14:11:14 51°17.935 2°51.001 122.2 13.7 125 13.2
2007-06-20 14:12:14 51°17.799 2°51.288 127.5 13.4 133 12
2007-06-20 14:13:14 51°17.668 2°51.578 128.4 13.4 128 11.2
2007-06-20 14:14:14 51°17.536 2°51.87 126.8 13.8 126 11.8
2007-06-20 14:15:14 51°17.403 2°52.158 128.9 13.4 127 11.8
2007-06-20 14:16:14 51°17.257 2°52.434 140.5 13.5 130 11.6
2007-06-20 14:17:14 51°17.082 2°52.658 148.4 13.7 143 10.9
2007-06-20 14:18:14 51°16.906 2°52.88 145.1 13.6 138 10.7
2007-06-20 14:19:14 51°16.744 2°53.13 135.6 13.5 136 12.5
2007-06-20 14:20:14 51°16.607 2°53.418 129.9 13.9 126 12.9
2007-06-20 14:21:14 51°16.472 2°53.716 129.6 14.1 122 13
2007-06-20 14:22:14 51°16.347 2°54.018 128 13.7 124 12.9
2007-06-20 14:23:14 51°16.251 2°54.245 131.6 8.3 127 12.8
2007-06-20 14:24:14 51°16.19 2°54.394 132.8 4.4 125 12.8
2007-06-20 14:25:14 51°16.185 2°54.441 168.6 1.5 78 12.9
2007-06-20 14:26:14 51°16.185 2°54.48 167.4 2 119 13
2007-06-20 14:27:14 51°16.089 2°54.538 172.7 9.4 165 12.9
2007-06-20 14:28:14 51°15.902 2°54.618 173.1 12 164 12.3
2007-06-20 14:29:14 51°15.715 2°54.698 174.4 11.6 166 11.6
2007-06-20 14:30:14 51°15.542 2°54.774 171.2 9.9 165 11.2
2007-06-20 14:31:14 51°15.393 2°54.838 173.4 9 162 10.8
2007-06-20 14:32:14 51°15.225 2°54.906 175.6 12.2 169 10.2
2007-06-20 14:33:14 51°15.017 2°54.943 183.2 12.7 176 10.4
2007-06-20 14:34:14 51°14.806 2°54.982 177.9 12.6 172 10.8
2007-06-20 14:35:14 51°14.595 2°55.016 182 12.9 176 11.2
2007-06-20 14:36:14 51°14.388 2°55.062 171 13.1 151 12.6
2007-06-20 14:37:14 51°14.237 2°55.296 135.7 11.9 135 12.9
2007-06-20 14:38:14 51°14.082 2°55.437 156 9.4 154 12.2
2007-06-20 14:39:14 51°13.948 2°55.538 157.4 8.3 154 13.1
2007-06-20 14:40:14 51°13.843 2°55.617 156.7 6.4 154 13.2
2007-06-20 14:41:14 51°13.761 2°55.709 137.9 5.8 136 -999
2007-06-20 14:42:14 51°13.698 2°55.824 130.3 5.9 128 -999
2007-06-20 14:43:14 51°13.647 2°55.937 129.3 4.5 125 -999
2007-06-20 14:44:14 51°13.613 2°56.028 119.7 3.5 116 -999
2007-06-20 14:45:14 51°13.599 2°56.084 112.1 1.2 106 -999
2007-06-20 14:46:14 51°13.596 2°56.094 113.9 0.3 80 -999
2007-06-20 14:47:14 51°13.597 2°56.096 118.1 0.1 31 -999
2007-06-20 14:48:14 51°13.598 2°56.094 126.7 0.2 307 -999